sensor_id;sensor_type;location;lat;lon;timestamp;pressure;altitude;pressure_sealevel;temperature
19102;BMP280;9683;49.028;12.064;2023-05-16T00:02:20;96804.38;;;15.40
19102;BMP280;9683;49.028;12.064;2023-05-16T00:04:48;96796.31;;;15.35
19102;BMP280;9683;49.028;12.064;2023-05-16T00:07:14;96803.28;;;15.41
19102;BMP280;9683;49.028;12.064;2023-05-16T00:09:41;96794.44;;;15.36
19102;BMP280;9683;49.028;12.064;2023-05-16T00:12:08;96807.56;;;15.42
19102;BMP280;9683;49.028;12.064;2023-05-16T00:14:35;96800.06;;;15.39
19102;BMP280;9683;49.028;12.064;2023-05-16T00:17:02;96805.41;;;15.34
19102;BMP280;9683;49.028;12.064;2023-05-16T00:19:35;96801.69;;;15.40
19102;BMP280;9683;49.028;12.064;2023-05-16T00:22:04;96804.91;;;15.42
19102;BMP280;9683;49.028;12.064;2023-05-16T00:24:31;96803.25;;;15.36
19102;BMP280;9683;49.028;12.064;2023-05-16T00:26:58;96785.00;;;15.18
19102;BMP280;9683;49.028;12.064;2023-05-16T00:29:24;96804.34;;;15.30
19102;BMP280;9683;49.028;12.064;2023-05-16T00:31:51;96803.78;;;15.28
19102;BMP280;9683;49.028;12.064;2023-05-16T00:34:17;96798.94;;;15.25
19102;BMP280;9683;49.028;12.064;2023-05-16T00:36:45;96796.81;;;15.22
19102;BMP280;9683;49.028;12.064;2023-05-16T00:39:13;96798.94;;;15.25
19102;BMP280;9683;49.028;12.064;2023-05-16T00:41:39;96795.75;;;15.23
19102;BMP280;9683;49.028;12.064;2023-05-16T00:44:06;96794.94;;;15.23
19102;BMP280;9683;49.028;12.064;2023-05-16T00:46:33;96797.31;;;15.14
19102;BMP280;9683;49.028;12.064;2023-05-16T00:48:59;96791.69;;;15.10
19102;BMP280;9683;49.028;12.064;2023-05-16T00:51:26;96801.31;;;15.11
19102;BMP280;9683;49.028;12.064;2023-05-16T00:53:53;96800.78;;;15.09
19102;BMP280;9683;49.028;12.064;2023-05-16T00:56:21;96796.47;;;15.08
19102;BMP280;9683;49.028;12.064;2023-05-16T00:58:48;96797.25;;;15.04
19102;BMP280;9683;49.028;12.064;2023-05-16T01:01:15;96791.38;;;15.02
19102;BMP280;9683;49.028;12.064;2023-05-16T01:03:43;96786.53;;;15.04
19102;BMP280;9683;49.028;12.064;2023-05-16T01:06:11;96787.09;;;15.06
19102;BMP280;9683;49.028;12.064;2023-05-16T01:08:38;96780.13;;;15.05
19102;BMP280;9683;49.028;12.064;2023-05-16T01:11:08;96744.41;;;14.79
19102;BMP280;9683;49.028;12.064;2023-05-16T01:13:43;96779.28;;;14.99
19102;BMP280;9683;49.028;12.064;2023-05-16T01:16:19;96784.91;;;14.93
19102;BMP280;9683;49.028;12.064;2023-05-16T01:19:12;96784.59;;;14.84
19102;BMP280;9683;49.028;12.064;2023-05-16T01:21:47;96757.47;;;14.65
19102;BMP280;9683;49.028;12.064;2023-05-16T01:24:22;96789.94;;;14.79
19102;BMP280;9683;49.028;12.064;2023-05-16T01:26:50;96794.19;;;14.75
19102;BMP280;9683;49.028;12.064;2023-05-16T01:29:17;96783.22;;;14.72
19102;BMP280;9683;49.028;12.064;2023-05-16T01:31:44;96784.28;;;14.71
19102;BMP280;9683;49.028;12.064;2023-05-16T01:34:11;96778.91;;;14.71
19102;BMP280;9683;49.028;12.064;2023-05-16T01:36:43;96775.44;;;14.70
19102;BMP280;9683;49.028;12.064;2023-05-16T01:39:14;96769.25;;;14.64
19102;BMP280;9683;49.028;12.064;2023-05-16T01:41:46;96774.88;;;14.63
19102;BMP280;9683;49.028;12.064;2023-05-16T01:44:23;96775.69;;;14.63
19102;BMP280;9683;49.028;12.064;2023-05-16T01:46:55;96765.44;;;14.50
19102;BMP280;9683;49.028;12.064;2023-05-16T01:49:26;96779.91;;;14.54
19102;BMP280;9683;49.028;12.064;2023-05-16T01:51:58;96778.00;;;14.50
19102;BMP280;9683;49.028;12.064;2023-05-16T01:54:30;96775.03;;;14.46
19102;BMP280;9683;49.028;12.064;2023-05-16T01:56:57;96775.84;;;14.47
19102;BMP280;9683;49.028;12.064;2023-05-16T01:59:26;96769.69;;;14.46
19102;BMP280;9683;49.028;12.064;2023-05-16T02:01:53;96765.41;;;14.45
19102;BMP280;9683;49.028;12.064;2023-05-16T02:04:22;96771.81;;;14.44
19102;BMP280;9683;49.028;12.064;2023-05-16T02:06:49;96753.31;;;14.38
19102;BMP280;9683;49.028;12.064;2023-05-16T02:09:16;96773.69;;;14.44
19102;BMP280;9683;49.028;12.064;2023-05-16T02:11:42;96787.38;;;14.47
19102;BMP280;9683;49.028;12.064;2023-05-16T02:14:09;96781.22;;;14.47
19102;BMP280;9683;49.028;12.064;2023-05-16T02:16:37;96781.22;;;14.47
19102;BMP280;9683;49.028;12.064;2023-05-16T02:19:03;96778.78;;;14.45
19102;BMP280;9683;49.028;12.064;2023-05-16T02:21:30;96776.91;;;14.46
19102;BMP280;9683;49.028;12.064;2023-05-16T02:23:56;96761.38;;;14.43
19102;BMP280;9683;49.028;12.064;2023-05-16T02:26:23;96773.75;;;14.54
19102;BMP280;9683;49.028;12.064;2023-05-16T02:28:49;96773.22;;;14.52
19102;BMP280;9683;49.028;12.064;2023-05-16T02:31:25;96761.69;;;14.51
19102;BMP280;9683;49.028;12.064;2023-05-16T02:33:52;96772.66;;;14.50
19102;BMP280;9683;49.028;12.064;2023-05-16T02:36:19;96769.72;;;14.51
19102;BMP280;9683;49.028;12.064;2023-05-16T02:38:46;96769.97;;;14.50
19102;BMP280;9683;49.028;12.064;2023-05-16T02:41:12;96778.28;;;14.53
19102;BMP280;9683;49.028;12.064;2023-05-16T02:43:39;96773.50;;;14.55
19102;BMP280;9683;49.028;12.064;2023-05-16T02:46:19;96764.38;;;14.51
19102;BMP280;9683;49.028;12.064;2023-05-16T02:48:45;96780.44;;;14.51
19102;BMP280;9683;49.028;12.064;2023-05-16T02:51:13;96780.44;;;14.51
19102;BMP280;9683;49.028;12.064;2023-05-16T02:53:40;96781.47;;;14.45
19102;BMP280;9683;49.028;12.064;2023-05-16T02:56:06;96785.75;;;14.46
19102;BMP280;9683;49.028;12.064;2023-05-16T02:58:34;96789.50;;;14.45
19102;BMP280;9683;49.028;12.064;2023-05-16T03:01:01;96775.53;;;14.38
19102;BMP280;9683;49.028;12.064;2023-05-16T03:03:28;96799.94;;;14.47
19102;BMP280;9683;49.028;12.064;2023-05-16T03:05:54;96791.66;;;14.48
19102;BMP280;9683;49.028;12.064;2023-05-16T03:08:22;96783.09;;;14.46
19102;BMP280;9683;49.028;12.064;2023-05-16T03:10:48;96798.84;;;14.43
19102;BMP280;9683;49.028;12.064;2023-05-16T03:13:15;96793.25;;;14.49
19102;BMP280;9683;49.028;12.064;2023-05-16T03:15:41;96799.47;;;14.55
19102;BMP280;9683;49.028;12.064;2023-05-16T03:18:08;96809.13;;;14.56
19102;BMP280;9683;49.028;12.064;2023-05-16T03:20:36;96804.75;;;14.45
19102;BMP280;9683;49.028;12.064;2023-05-16T03:23:02;96809.81;;;14.41
19102;BMP280;9683;49.028;12.064;2023-05-16T03:25:33;96803.66;;;14.41
19102;BMP280;9683;49.028;12.064;2023-05-16T03:28:00;96798.47;;;14.29
19102;BMP280;9683;49.028;12.064;2023-05-16T03:30:26;96814.31;;;14.36
19102;BMP280;9683;49.028;12.064;2023-05-16T03:32:54;96785.81;;;14.19
19102;BMP280;9683;49.028;12.064;2023-05-16T03:35:20;96816.19;;;14.35
19102;BMP280;9683;49.028;12.064;2023-05-16T03:37:49;96817.72;;;14.31
19102;BMP280;9683;49.028;12.064;2023-05-16T03:40:15;96819.63;;;14.31
19102;BMP280;9683;49.028;12.064;2023-05-16T03:42:43;96821.78;;;14.34
19102;BMP280;9683;49.028;12.064;2023-05-16T03:45:10;96786.84;;;14.13
19102;BMP280;9683;49.028;12.064;2023-05-16T03:47:36;96819.31;;;14.27
19102;BMP280;9683;49.028;12.064;2023-05-16T03:50:04;96812.84;;;14.23
19102;BMP280;9683;49.028;12.064;2023-05-16T03:52:30;96815.25;;;14.19
19102;BMP280;9683;49.028;12.064;2023-05-16T03:54:57;96816.88;;;14.20
19102;BMP280;9683;49.028;12.064;2023-05-16T03:57:23;96819.53;;;14.20
19102;BMP280;9683;49.028;12.064;2023-05-16T03:59:51;96817.38;;;14.17
19102;BMP280;9683;49.028;12.064;2023-05-16T04:02:17;96812.53;;;14.09
19102;BMP280;9683;49.028;12.064;2023-05-16T04:04:44;96811.72;;;14.09
19102;BMP280;9683;49.028;12.064;2023-05-16T04:07:10;96825.38;;;14.12
19102;BMP280;9683;49.028;12.064;2023-05-16T04:09:37;96821.06;;;14.11
19102;BMP280;9683;49.028;12.064;2023-05-16T04:12:04;96817.59;;;14.11
19102;BMP280;9683;49.028;12.064;2023-05-16T04:14:31;96823.75;;;14.11
19102;BMP280;9683;49.028;12.064;2023-05-16T04:16:59;96809.03;;;14.09
19102;BMP280;9683;49.028;12.064;2023-05-16T04:19:27;96823.78;;;14.16
19102;BMP280;9683;49.028;12.064;2023-05-16T04:21:53;96821.41;;;14.20
19102;BMP280;9683;49.028;12.064;2023-05-16T04:24:20;96819.31;;;14.22
19102;BMP280;9683;49.028;12.064;2023-05-16T04:26:50;96823.84;;;14.21
19102;BMP280;9683;49.028;12.064;2023-05-16T04:29:17;96824.84;;;14.15
19102;BMP280;9683;49.028;12.064;2023-05-16T04:31:43;96821.84;;;14.07
19102;BMP280;9683;49.028;12.064;2023-05-16T04:34:11;96823.13;;;13.99
19102;BMP280;9683;49.028;12.064;2023-05-16T04:36:39;96820.91;;;13.91
19102;BMP280;9683;49.028;12.064;2023-05-16T04:39:06;96820.63;;;13.88
19102;BMP280;9683;49.028;12.064;2023-05-16T04:41:32;96823.75;;;13.80
19102;BMP280;9683;49.028;12.064;2023-05-16T04:44:00;96821.09;;;13.80
19102;BMP280;9683;49.028;12.064;2023-05-16T04:46:28;96785.53;;;13.52
19102;BMP280;9683;49.028;12.064;2023-05-16T04:48:55;96823.88;;;13.63
19102;BMP280;9683;49.028;12.064;2023-05-16T04:51:23;96821.22;;;13.63
19102;BMP280;9683;49.028;12.064;2023-05-16T04:53:49;96823.81;;;13.58
19102;BMP280;9683;49.028;12.064;2023-05-16T04:56:16;96819.81;;;13.60
19102;BMP280;9683;49.028;12.064;2023-05-16T04:58:42;96826.56;;;13.68
19102;BMP280;9683;49.028;12.064;2023-05-16T05:01:09;96811.91;;;13.70
19102;BMP280;9683;49.028;12.064;2023-05-16T05:03:35;96815.19;;;13.77
19102;BMP280;9683;49.028;12.064;2023-05-16T05:06:02;96819.00;;;13.87
19102;BMP280;9683;49.028;12.064;2023-05-16T05:08:30;96820.69;;;13.93
19102;BMP280;9683;49.028;12.064;2023-05-16T05:10:56;96808.66;;;13.95
19102;BMP280;9683;49.028;12.064;2023-05-16T05:13:23;96811.91;;;14.02
19102;BMP280;9683;49.028;12.064;2023-05-16T05:15:50;96821.88;;;14.12
19102;BMP280;9683;49.028;12.064;2023-05-16T05:18:17;96822.75;;;14.17
19102;BMP280;9683;49.028;12.064;2023-05-16T05:20:43;96828.63;;;14.19
19102;BMP280;9683;49.028;12.064;2023-05-16T05:23:10;96827.56;;;14.20
19102;BMP280;9683;49.028;12.064;2023-05-16T05:25:38;96819.03;;;14.23
19102;BMP280;9683;49.028;12.064;2023-05-16T05:28:05;96822.25;;;14.26
19102;BMP280;9683;49.028;12.064;2023-05-16T05:30:31;96822.50;;;14.24
19102;BMP280;9683;49.028;12.064;2023-05-16T05:32:58;96815.78;;;14.16
19102;BMP280;9683;49.028;12.064;2023-05-16T05:35:24;96818.72;;;14.20
19102;BMP280;9683;49.028;12.064;2023-05-16T05:37:51;96827.34;;;14.27
19102;BMP280;9683;49.028;12.064;2023-05-16T05:40:17;96818.28;;;14.33
19102;BMP280;9683;49.028;12.064;2023-05-16T05:42:45;96817.59;;;14.43
19102;BMP280;9683;49.028;12.064;2023-05-16T05:45:12;96817.88;;;14.46
19102;BMP280;9683;49.028;12.064;2023-05-16T05:47:38;96820.31;;;14.53
19102;BMP280;9683;49.028;12.064;2023-05-16T05:50:06;96765.78;;;14.27
19102;BMP280;9683;49.028;12.064;2023-05-16T05:52:33;96820.63;;;14.61
19102;BMP280;9683;49.028;12.064;2023-05-16T05:54:59;96819.03;;;14.60
19102;BMP280;9683;49.028;12.064;2023-05-16T05:57:26;96827.63;;;14.62
19102;BMP280;9683;49.028;12.064;2023-05-16T05:59:54;96818.81;;;14.67
19102;BMP280;9683;49.028;12.064;2023-05-16T06:02:21;96817.75;;;14.68
19102;BMP280;9683;49.028;12.064;2023-05-16T06:04:47;96817.25;;;14.76
19102;BMP280;9683;49.028;12.064;2023-05-16T06:07:13;96824.50;;;14.81
19102;BMP280;9683;49.028;12.064;2023-05-16T06:09:41;96818.63;;;14.84
19102;BMP280;9683;49.028;12.064;2023-05-16T06:12:08;96830.97;;;14.85
19102;BMP280;9683;49.028;12.064;2023-05-16T06:14:35;96798.22;;;14.78
19102;BMP280;9683;49.028;12.064;2023-05-16T06:17:03;96823.22;;;14.93
19102;BMP280;9683;49.028;12.064;2023-05-16T06:19:29;96814.66;;;14.96
19102;BMP280;9683;49.028;12.064;2023-05-16T06:21:55;96814.13;;;14.99
19102;BMP280;9683;49.028;12.064;2023-05-16T06:24:22;96819.75;;;15.03
19102;BMP280;9683;49.028;12.064;2023-05-16T06:26:48;96820.31;;;15.05
19102;BMP280;9683;49.028;12.064;2023-05-16T06:29:16;96813.91;;;15.06
19102;BMP280;9683;49.028;12.064;2023-05-16T06:31:43;96816.88;;;15.09
19102;BMP280;9683;49.028;12.064;2023-05-16T06:34:11;96811.78;;;15.13
19102;BMP280;9683;49.028;12.064;2023-05-16T06:36:37;96814.72;;;15.11
19102;BMP280;9683;49.028;12.064;2023-05-16T06:39:04;96815.22;;;15.03
19102;BMP280;9683;49.028;12.064;2023-05-16T06:41:30;96810.13;;;15.02
19102;BMP280;9683;49.028;12.064;2023-05-16T06:43:57;96814.97;;;15.05
19102;BMP280;9683;49.028;12.064;2023-05-16T06:46:23;96816.06;;;15.09
19102;BMP280;9683;49.028;12.064;2023-05-16T06:48:50;96820.06;;;15.11
19102;BMP280;9683;49.028;12.064;2023-05-16T06:51:18;96827.31;;;15.06
19102;BMP280;9683;49.028;12.064;2023-05-16T06:53:44;96824.56;;;14.96
19102;BMP280;9683;49.028;12.064;2023-05-16T06:56:11;96819.72;;;14.88
19102;BMP280;9683;49.028;12.064;2023-05-16T06:58:37;96819.19;;;14.91
19102;BMP280;9683;49.028;12.064;2023-05-16T07:01:04;96785.09;;;14.71
19102;BMP280;9683;49.028;12.064;2023-05-16T07:03:30;96820.84;;;15.02
19102;BMP280;9683;49.028;12.064;2023-05-16T07:05:57;96829.69;;;15.07
19102;BMP280;9683;49.028;12.064;2023-05-16T07:08:25;96821.97;;;15.16
19102;BMP280;9683;49.028;12.064;2023-05-16T07:10:51;96820.66;;;15.19
19102;BMP280;9683;49.028;12.064;2023-05-16T07:13:18;96778.50;;;14.94
19102;BMP280;9683;49.028;12.064;2023-05-16T07:15:44;96820.94;;;15.27
19102;BMP280;9683;49.028;12.064;2023-05-16T07:18:11;96821.22;;;15.31
19102;BMP280;9683;49.028;12.064;2023-05-16T07:20:37;96818.28;;;15.37
19102;BMP280;9683;49.028;12.064;2023-05-16T07:23:04;96825.28;;;15.43
19102;BMP280;9683;49.028;12.064;2023-05-16T07:25:32;96826.66;;;15.51
19102;BMP280;9683;49.028;12.064;2023-05-16T07:27:58;96830.19;;;15.56
19102;BMP280;9683;49.028;12.064;2023-05-16T07:30:25;96828.03;;;15.64
19102;BMP280;9683;49.028;12.064;2023-05-16T07:32:51;96826.44;;;15.68
19102;BMP280;9683;49.028;12.064;2023-05-16T07:35:18;96829.16;;;15.78
19102;BMP280;9683;49.028;12.064;2023-05-16T07:37:44;96832.63;;;15.83
19102;BMP280;9683;49.028;12.064;2023-05-16T07:40:11;96822.44;;;15.90
19102;BMP280;9683;49.028;12.064;2023-05-16T07:42:40;96824.03;;;15.96
19102;BMP280;9683;49.028;12.064;2023-05-16T07:45:06;96814.66;;;15.99
19102;BMP280;9683;49.028;12.064;2023-05-16T07:47:33;96813.31;;;16.01
19102;BMP280;9683;49.028;12.064;2023-05-16T07:50:00;96812.78;;;16.04
19102;BMP280;9683;49.028;12.064;2023-05-16T07:52:26;96804.72;;;15.99
19102;BMP280;9683;49.028;12.064;2023-05-16T07:54:53;96820.03;;;16.14
19102;BMP280;9683;49.028;12.064;2023-05-16T07:57:20;96816.28;;;16.20
19102;BMP280;9683;49.028;12.064;2023-05-16T07:59:47;96822.44;;;16.21
19102;BMP280;9683;49.028;12.064;2023-05-16T08:02:16;96824.31;;;16.05
19102;BMP280;9683;49.028;12.064;2023-05-16T08:04:43;96834.53;;;15.98
19102;BMP280;9683;49.028;12.064;2023-05-16T08:07:09;96831.03;;;15.97
19102;BMP280;9683;49.028;12.064;2023-05-16T08:09:36;96829.16;;;15.98
19102;BMP280;9683;49.028;12.064;2023-05-16T08:12:02;96828.34;;;15.92
19102;BMP280;9683;49.028;12.064;2023-05-16T08:14:29;96824.84;;;15.97
19102;BMP280;9683;49.028;12.064;2023-05-16T08:16:58;96820.56;;;16.06
19102;BMP280;9683;49.028;12.064;2023-05-16T08:19:25;96826.47;;;16.08
19102;BMP280;9683;49.028;12.064;2023-05-16T08:21:51;96826.75;;;16.12
19102;BMP280;9683;49.028;12.064;2023-05-16T08:24:18;96830.75;;;16.14
19102;BMP280;9683;49.028;12.064;2023-05-16T08:26:44;96833.72;;;16.18
19102;BMP280;9683;49.028;12.064;2023-05-16T08:29:11;96830.22;;;16.22
19102;BMP280;9683;49.028;12.064;2023-05-16T08:31:38;96832.38;;;16.30
19102;BMP280;9683;49.028;12.064;2023-05-16T08:34:06;96828.88;;;16.35
19102;BMP280;9683;49.028;12.064;2023-05-16T08:36:33;96835.88;;;16.41
19102;BMP280;9683;49.028;12.064;2023-05-16T08:39:00;96793.69;;;16.26
19102;BMP280;9683;49.028;12.064;2023-05-16T08:41:27;96830.47;;;16.56
19102;BMP280;9683;49.028;12.064;2023-05-16T08:43:54;96831.00;;;16.63
19102;BMP280;9683;49.028;12.064;2023-05-16T08:46:22;96829.38;;;16.72
19102;BMP280;9683;49.028;12.064;2023-05-16T08:48:51;96824.00;;;16.72
19102;BMP280;9683;49.028;12.064;2023-05-16T08:51:19;96823.19;;;16.77
19102;BMP280;9683;49.028;12.064;2023-05-16T08:53:49;96818.88;;;16.81
19102;BMP280;9683;49.028;12.064;2023-05-16T08:56:18;96822.88;;;16.88
19102;BMP280;9683;49.028;12.064;2023-05-16T08:58:46;96831.19;;;16.92
19102;BMP280;9683;49.028;12.064;2023-05-16T09:01:13;96817.50;;;16.88
19102;BMP280;9683;49.028;12.064;2023-05-16T09:10:24;96817.88;;;17.31
19102;BMP280;9683;49.028;12.064;2023-05-16T09:12:51;96801.97;;;17.34
19102;BMP280;9683;49.028;12.064;2023-05-16T09:15:18;96803.28;;;17.42
19102;BMP280;9683;49.028;12.064;2023-05-16T09:17:46;96810.25;;;17.48
19102;BMP280;9683;49.028;12.064;2023-05-16T09:20:14;96815.34;;;17.50
19102;BMP280;9683;49.028;12.064;2023-05-16T09:22:49;96811.28;;;17.52
19102;BMP280;9683;49.028;12.064;2023-05-16T09:25:17;96818.28;;;17.53
19102;BMP280;9683;49.028;12.064;2023-05-16T09:27:46;96810.75;;;17.60
19102;BMP280;9683;49.028;12.064;2023-05-16T09:30:13;96810.47;;;17.62
19102;BMP280;9683;49.028;12.064;2023-05-16T09:32:42;96809.34;;;17.68
19102;BMP280;9683;49.028;12.064;2023-05-16T09:35:10;96805.81;;;17.72
19102;BMP280;9683;49.028;12.064;2023-05-16T09:37:43;96801.75;;;17.80
19102;BMP280;9683;49.028;12.064;2023-05-16T09:40:10;96808.19;;;17.84
19102;BMP280;9683;49.028;12.064;2023-05-16T09:42:37;96800.59;;;17.86
19102;BMP280;9683;49.028;12.064;2023-05-16T09:45:06;96800.84;;;17.90
19102;BMP280;9683;49.028;12.064;2023-05-16T09:47:36;96798.97;;;17.90
19102;BMP280;9683;49.028;12.064;2023-05-16T09:50:10;96806.19;;;17.95
19102;BMP280;9683;49.028;12.064;2023-05-16T09:52:37;96794.16;;;17.87
19102;BMP280;9683;49.028;12.064;2023-05-16T09:55:05;96798.16;;;17.90
19102;BMP280;9683;49.028;12.064;2023-05-16T09:57:32;96770.47;;;17.84
19102;BMP280;9683;49.028;12.064;2023-05-16T10:00:06;96798.38;;;17.93
19102;BMP280;9683;49.028;12.064;2023-05-16T10:02:36;96796.03;;;17.86
19102;BMP280;9683;49.028;12.064;2023-05-16T10:05:03;96790.69;;;17.81
19102;BMP280;9683;49.028;12.064;2023-05-16T10:07:30;96780.94;;;17.85
19102;BMP280;9683;49.028;12.064;2023-05-16T10:09:58;96790.09;;;17.84
19102;BMP280;9683;49.028;12.064;2023-05-16T10:12:29;96800.03;;;17.89
19102;BMP280;9683;49.028;12.064;2023-05-16T10:14:56;96791.69;;;17.91
19102;BMP280;9683;49.028;12.064;2023-05-16T10:17:26;96784.72;;;17.84
19102;BMP280;9683;49.028;12.064;2023-05-16T10:19:56;96791.44;;;17.87
19102;BMP280;9683;49.028;12.064;2023-05-16T10:22:23;96803.25;;;17.91
19102;BMP280;9683;49.028;12.064;2023-05-16T10:24:53;96792.47;;;17.96
19102;BMP280;9683;49.028;12.064;2023-05-16T10:27:22;96791.09;;;17.99
19102;BMP280;9683;49.028;12.064;2023-05-16T10:29:50;96790.78;;;18.05
19102;BMP280;9683;49.028;12.064;2023-05-16T10:32:17;96789.38;;;18.13
19102;BMP280;9683;49.028;12.064;2023-05-16T10:34:45;96790.38;;;18.22
19102;BMP280;9683;49.028;12.064;2023-05-16T10:37:12;96786.81;;;18.26
19102;BMP280;9683;49.028;12.064;2023-05-16T10:39:39;96792.69;;;18.33
19102;BMP280;9683;49.028;12.064;2023-05-16T10:42:06;96786.94;;;18.40
19102;BMP280;9683;49.028;12.064;2023-05-16T10:44:33;96789.09;;;18.43
19102;BMP280;9683;49.028;12.064;2023-05-16T10:46:59;96792.50;;;18.49
19102;BMP280;9683;49.028;12.064;2023-05-16T10:49:29;96801.13;;;18.56
19102;BMP280;9683;49.028;12.064;2023-05-16T10:52:06;96802.94;;;18.60
19102;BMP280;9683;49.028;12.064;2023-05-16T10:54:37;96803.75;;;18.61
19102;BMP280;9683;49.028;12.064;2023-05-16T10:57:09;96808.59;;;18.64
19102;BMP280;9683;49.028;12.064;2023-05-16T10:59:40;96807.72;;;18.68
19102;BMP280;9683;49.028;12.064;2023-05-16T11:02:21;96810.66;;;18.72
19102;BMP280;9683;49.028;12.064;2023-05-16T11:04:48;96809.84;;;18.71
19102;BMP280;9683;49.028;12.064;2023-05-16T11:07:18;96787.66;;;18.51
19102;BMP280;9683;49.028;12.064;2023-05-16T11:09:45;96816.03;;;18.72
19102;BMP280;9683;49.028;12.064;2023-05-16T11:12:12;96815.06;;;18.63
19102;BMP280;9683;49.028;12.064;2023-05-16T11:14:40;96828.75;;;18.66
19102;BMP280;9683;49.028;12.064;2023-05-16T11:17:09;96830.97;;;18.64
19102;BMP280;9683;49.028;12.064;2023-05-16T11:19:40;96830.16;;;18.64
19102;BMP280;9683;49.028;12.064;2023-05-16T11:22:27;96828.53;;;18.63
19102;BMP280;9683;49.028;12.064;2023-05-16T11:24:56;96811.91;;;18.51
19102;BMP280;9683;49.028;12.064;2023-05-16T11:27:25;96825.88;;;18.58
19102;BMP280;9683;49.028;12.064;2023-05-16T11:29:53;96827.78;;;18.57
19102;BMP280;9683;49.028;12.064;2023-05-16T11:32:21;96822.16;;;18.54
19102;BMP280;9683;49.028;12.064;2023-05-16T11:34:49;96820.53;;;18.53
19102;BMP280;9683;49.028;12.064;2023-05-16T11:37:17;96819.72;;;18.52
19102;BMP280;9683;49.028;12.064;2023-05-16T11:39:45;96815.94;;;18.53
19102;BMP280;9683;49.028;12.064;2023-05-16T11:42:11;96823.50;;;18.51
19102;BMP280;9683;49.028;12.064;2023-05-16T11:44:38;96822.69;;;18.51
19102;BMP280;9683;49.028;12.064;2023-05-16T11:47:06;96827.53;;;18.54
19102;BMP280;9683;49.028;12.064;2023-05-16T11:49:32;96828.38;;;18.49
19102;BMP280;9683;49.028;12.064;2023-05-16T11:51:59;96812.13;;;18.30
19102;BMP280;9683;49.028;12.064;2023-05-16T11:54:26;96842.72;;;18.40
19102;BMP280;9683;49.028;12.064;2023-05-16T11:56:54;96847.59;;;18.38
19102;BMP280;9683;49.028;12.064;2023-05-16T11:59:20;96848.97;;;18.35
19102;BMP280;9683;49.028;12.064;2023-05-16T12:01:47;96837.09;;;18.36
19102;BMP280;9683;49.028;12.064;2023-05-16T12:04:15;96845.75;;;18.33
19102;BMP280;9683;49.028;12.064;2023-05-16T12:06:42;96850.34;;;18.32
19102;BMP280;9683;49.028;12.064;2023-05-16T12:09:11;96848.22;;;18.29
19102;BMP280;9683;49.028;12.064;2023-05-16T12:11:40;96840.84;;;18.06
19102;BMP280;9683;49.028;12.064;2023-05-16T12:14:09;96846.66;;;17.84
19102;BMP280;9683;49.028;12.064;2023-05-16T12:16:37;96843.78;;;17.71
19102;BMP280;9683;49.028;12.064;2023-05-16T12:19:06;96841.38;;;17.64
19102;BMP280;9683;49.028;12.064;2023-05-16T12:21:33;96842.19;;;17.70
19102;BMP280;9683;49.028;12.064;2023-05-16T12:24:01;96841.59;;;17.78
19102;BMP280;9683;49.028;12.064;2023-05-16T12:26:29;96845.03;;;17.89
19102;BMP280;9683;49.028;12.064;2023-05-16T12:28:56;96833.16;;;17.90
19102;BMP280;9683;49.028;12.064;2023-05-16T12:31:26;96838.72;;;18.03
19102;BMP280;9683;49.028;12.064;2023-05-16T12:33:53;96799.00;;;17.85
19102;BMP280;9683;49.028;12.064;2023-05-16T12:36:20;96827.72;;;18.00
19102;BMP280;9683;49.028;12.064;2023-05-16T12:38:48;96824.97;;;18.05
19102;BMP280;9683;49.028;12.064;2023-05-16T12:41:17;96843.94;;;18.23
19102;BMP280;9683;49.028;12.064;2023-05-16T12:43:44;96840.16;;;18.24
19102;BMP280;9683;49.028;12.064;2023-05-16T12:46:10;96835.31;;;18.26
19102;BMP280;9683;49.028;12.064;2023-05-16T12:48:39;96831.47;;;18.32
19102;BMP280;9683;49.028;12.064;2023-05-16T12:51:10;96849.50;;;18.37
19102;BMP280;9683;49.028;12.064;2023-05-16T12:53:42;96848.13;;;18.40
19102;BMP280;9683;49.028;12.064;2023-05-16T12:56:10;96856.47;;;18.43
19102;BMP280;9683;49.028;12.064;2023-05-16T12:58:37;96874.44;;;18.48
19102;BMP280;9683;49.028;12.064;2023-05-16T13:01:04;96883.34;;;18.48
19102;BMP280;9683;49.028;12.064;2023-05-16T13:03:31;96877.22;;;18.43
19102;BMP280;9683;49.028;12.064;2023-05-16T13:05:59;96880.41;;;18.45
19102;BMP280;9683;49.028;12.064;2023-05-16T13:08:26;96872.91;;;18.42
19102;BMP280;9683;49.028;12.064;2023-05-16T13:10:53;96878.56;;;18.40
19102;BMP280;9683;49.028;12.064;2023-05-16T13:13:21;96877.75;;;18.40
19102;BMP280;9683;49.028;12.064;2023-05-16T13:15:47;96874.28;;;18.39
19102;BMP280;9683;49.028;12.064;2023-05-16T13:18:14;96872.38;;;18.40
19102;BMP280;9683;49.028;12.064;2023-05-16T13:20:40;96870.81;;;18.33
19102;BMP280;9683;49.028;12.064;2023-05-16T13:23:09;96880.56;;;18.29
19102;BMP280;9683;49.028;12.064;2023-05-16T13:25:35;96874.38;;;18.24
19102;BMP280;9683;49.028;12.064;2023-05-16T13:28:02;96878.50;;;18.16
19102;BMP280;9683;49.028;12.064;2023-05-16T13:30:28;96867.78;;;18.06
19102;BMP280;9683;49.028;12.064;2023-05-16T13:32:55;96876.97;;;18.05
19102;BMP280;9683;49.028;12.064;2023-05-16T13:35:22;96881.34;;;17.96
19102;BMP280;9683;49.028;12.064;2023-05-16T13:37:49;96882.78;;;17.78
19102;BMP280;9683;49.028;12.064;2023-05-16T13:40:17;96883.13;;;17.67
19102;BMP280;9683;49.028;12.064;2023-05-16T13:42:43;96895.22;;;17.64
19102;BMP280;9683;49.028;12.064;2023-05-16T13:45:10;96897.16;;;17.54
19102;BMP280;9683;49.028;12.064;2023-05-16T13:47:36;96893.97;;;17.41
19102;BMP280;9683;49.028;12.064;2023-05-16T13:50:04;96897.16;;;17.49
19102;BMP280;9683;49.028;12.064;2023-05-16T13:52:34;96900.63;;;17.59
19102;BMP280;9683;49.028;12.064;2023-05-16T13:55:00;96897.63;;;17.71
19102;BMP280;9683;49.028;12.064;2023-05-16T13:57:28;96897.81;;;17.84
19102;BMP280;9683;49.028;12.064;2023-05-16T13:59:55;96888.88;;;17.89
19102;BMP280;9683;49.028;12.064;2023-05-16T14:02:22;96884.34;;;17.84
19102;BMP280;9683;49.028;12.064;2023-05-16T14:04:50;96878.66;;;17.91
19102;BMP280;9683;49.028;12.064;2023-05-16T14:07:16;96894.56;;;17.88
19102;BMP280;9683;49.028;12.064;2023-05-16T14:09:43;96893.50;;;17.89
19102;BMP280;9683;49.028;12.064;2023-05-16T14:12:10;96901.84;;;17.87
19102;BMP280;9683;49.028;12.064;2023-05-16T14:14:37;96887.56;;;17.86
19102;BMP280;9683;49.028;12.064;2023-05-16T14:17:04;96890.00;;;17.88
19102;BMP280;9683;49.028;12.064;2023-05-16T14:19:31;96904.22;;;17.94